sensor_id;sensor_type;location;lat;lon;timestamp;pressure;altitude;pressure_sealevel;temperature;humidity
23318;BME280;11831;55.918;37.746;2023-02-19T00:03:57;97763.34;;;-3.63;0.00
23318;BME280;11831;55.918;37.746;2023-02-19T00:06:26;97768.25;;;-3.68;0.00
23318;BME280;11831;55.918;37.746;2023-02-19T00:08:54;97765.72;;;-3.76;0.00
23318;BME280;11831;55.918;37.746;2023-02-19T00:11:24;97763.69;;;-3.66;0.00
23318;BME280;11831;55.918;37.746;2023-02-19T00:13:52;97759.28;;;-3.65;0.00
23318;BME280;11831;55.918;37.746;2023-02-19T00:16:23;97760.31;;;-3.89;0.00
23318;BME280;11831;55.918;37.746;2023-02-19T00:18:50;97744.47;;;-3.73;0.00
23318;BME280;11831;55.918;37.746;2023-02-19T00:21:16;97744.59;;;-4.04;0.00
23318;BME280;11831;55.918;37.746;2023-02-19T00:23:51;97753.53;;;-3.31;0.00
23318;BME280;11831;55.918;37.746;2023-02-19T00:26:17;97743.34;;;-4.08;0.00
23318;BME280;11831;55.918;37.746;2023-02-19T00:28:45;97739.53;;;-3.83;0.00
23318;BME280;11831;55.918;37.746;2023-02-19T00:31:24;97749.12;;;-3.98;0.00
23318;BME280;11831;55.918;37.746;2023-02-19T00:33:53;97736.50;;;-3.57;0.00
23318;BME280;11831;55.918;37.746;2023-02-19T00:36:20;97740.16;;;-4.18;0.00
23318;BME280;11831;55.918;37.746;2023-02-19T00:38:47;97740.53;;;-3.69;0.00
23318;BME280;11831;55.918;37.746;2023-02-19T00:41:16;97733.00;;;-4.01;0.00
23318;BME280;11831;55.918;37.746;2023-02-19T00:46:16;97727.94;;;-4.18;0.00
23318;BME280;11831;55.918;37.746;2023-02-19T00:48:43;97742.41;;;-4.61;0.00
23318;BME280;11831;55.918;37.746;2023-02-19T00:51:10;97731.34;;;-4.40;0.00
23318;BME280;11831;55.918;37.746;2023-02-19T00:53:37;97730.41;;;-4.70;0.00
23318;BME280;11831;55.918;37.746;2023-02-19T00:56:04;97726.47;;;-4.20;0.00
23318;BME280;11831;55.918;37.746;2023-02-19T00:58:31;97732.50;;;-3.82;0.00
23318;BME280;11831;55.918;37.746;2023-02-19T01:00:58;97719.88;;;-3.93;0.00
23318;BME280;11831;55.918;37.746;2023-02-19T01:03:24;97730.34;;;-4.54;0.00
23318;BME280;11831;55.918;37.746;2023-02-19T01:05:51;97716.47;;;-3.79;0.00
23318;BME280;11831;55.918;37.746;2023-02-19T01:08:19;97714.31;;;-4.28;0.00
23318;BME280;11831;55.918;37.746;2023-02-19T01:10:45;97700.84;;;-4.02;0.00
23318;BME280;11831;55.918;37.746;2023-02-19T01:13:12;97707.50;;;-4.14;0.00
23318;BME280;11831;55.918;37.746;2023-02-19T01:15:39;97705.47;;;-3.89;0.00
23318;BME280;11831;55.918;37.746;2023-02-19T01:18:05;97709.25;;;-3.77;0.00
23318;BME280;11831;55.918;37.746;2023-02-19T01:20:32;97703.19;;;-4.22;0.00
23318;BME280;11831;55.918;37.746;2023-02-19T01:22:59;97699.63;;;-3.91;0.00
23318;BME280;11831;55.918;37.746;2023-02-19T01:25:25;97695.44;;;-4.53;0.00
23318;BME280;11831;55.918;37.746;2023-02-19T01:27:51;97678.88;;;-4.08;0.00
23318;BME280;11831;55.918;37.746;2023-02-19T01:30:17;97688.50;;;-4.08;0.00
23318;BME280;11831;55.918;37.746;2023-02-19T01:32:44;97691.16;;;-3.79;0.00
23318;BME280;11831;55.918;37.746;2023-02-19T01:35:10;97681.25;;;-3.98;0.00
23318;BME280;11831;55.918;37.746;2023-02-19T01:37:37;97679.78;;;-4.00;0.00
23318;BME280;11831;55.918;37.746;2023-02-19T01:40:04;97676.19;;;-4.14;0.00
23318;BME280;11831;55.918;37.746;2023-02-19T01:42:30;97685.59;;;-3.61;0.00
23318;BME280;11831;55.918;37.746;2023-02-19T01:45:28;97682.69;;;-3.51;0.00
23318;BME280;11831;55.918;37.746;2023-02-19T01:51:08;97673.12;;;-4.18;0.00
23318;BME280;11831;55.918;37.746;2023-02-19T01:53:39;97674.66;;;-4.09;0.00
23318;BME280;11831;55.918;37.746;2023-02-19T01:56:07;97667.81;;;-4.10;0.00
23318;BME280;11831;55.918;37.746;2023-02-19T01:58:35;97677.75;;;-3.90;0.00
23318;BME280;11831;55.918;37.746;2023-02-19T02:01:06;97684.31;;;-3.80;0.00
23318;BME280;11831;55.918;37.746;2023-02-19T02:03:34;97665.59;;;-3.83;0.00
23318;BME280;11831;55.918;37.746;2023-02-19T02:06:20;97671.09;;;-3.93;0.00
23318;BME280;11831;55.918;37.746;2023-02-19T02:08:50;97662.69;;;-3.73;0.00
23318;BME280;11831;55.918;37.746;2023-02-19T02:11:38;97671.72;;;-3.91;0.00
23318;BME280;11831;55.918;37.746;2023-02-19T02:14:06;97669.91;;;-3.90;0.00
23318;BME280;11831;55.918;37.746;2023-02-19T02:19:53;97671.72;;;-3.76;0.00
23318;BME280;11831;55.918;37.746;2023-02-19T02:22:34;97674.69;;;-3.94;0.00
23318;BME280;11831;55.918;37.746;2023-02-19T02:30:40;97657.47;;;-4.03;0.00
23318;BME280;11831;55.918;37.746;2023-02-19T02:33:16;97657.12;;;-4.75;0.00
23318;BME280;11831;55.918;37.746;2023-02-19T02:38:19;97651.97;;;-4.23;0.00
23318;BME280;11831;55.918;37.746;2023-02-19T02:40:47;97663.53;;;-3.88;0.00
23318;BME280;11831;55.918;37.746;2023-02-19T02:43:14;97657.41;;;-4.70;0.00
23318;BME280;11831;55.918;37.746;2023-02-19T02:45:40;97661.28;;;-3.91;0.00
23318;BME280;11831;55.918;37.746;2023-02-19T02:48:26;97655.41;;;-3.49;0.00
23318;BME280;11831;55.918;37.746;2023-02-19T02:51:04;97642.28;;;-4.52;0.00
23318;BME280;11831;55.918;37.746;2023-02-19T02:53:39;97650.03;;;-3.91;0.00
23318;BME280;11831;55.918;37.746;2023-02-19T02:56:32;97651.53;;;-4.49;0.00
23318;BME280;11831;55.918;37.746;2023-02-19T02:59:01;97645.41;;;-4.04;0.00
23318;BME280;11831;55.918;37.746;2023-02-19T03:01:32;97649.81;;;-4.19;0.00
23318;BME280;11831;55.918;37.746;2023-02-19T03:04:25;97650.25;;;-4.01;0.00
23318;BME280;11831;55.918;37.746;2023-02-19T03:06:55;97649.00;;;-4.05;0.00
23318;BME280;11831;55.918;37.746;2023-02-19T03:09:43;97654.78;;;-3.95;0.00
23318;BME280;11831;55.918;37.746;2023-02-19T03:12:13;97638.28;;;-4.10;0.00
23318;BME280;11831;55.918;37.746;2023-02-19T03:15:02;97639.72;;;-4.22;0.00
23318;BME280;11831;55.918;37.746;2023-02-19T03:17:52;97634.47;;;-4.37;0.00
23318;BME280;11831;55.918;37.746;2023-02-19T03:20:43;97636.41;;;-4.16;0.00
23318;BME280;11831;55.918;37.746;2023-02-19T03:23:13;97632.81;;;-4.53;0.00
23318;BME280;11831;55.918;37.746;2023-02-19T03:25:41;97636.72;;;-4.34;0.00
23318;BME280;11831;55.918;37.746;2023-02-19T03:28:30;97632.41;;;-4.42;0.00
23318;BME280;11831;55.918;37.746;2023-02-19T03:31:18;97635.31;;;-4.59;0.00
23318;BME280;11831;55.918;37.746;2023-02-19T03:33:50;97632.91;;;-4.84;0.00
23318;BME280;11831;55.918;37.746;2023-02-19T03:36:19;97626.75;;;-4.68;0.00
23318;BME280;11831;55.918;37.746;2023-02-19T03:41:35;97622.41;;;-4.38;0.00
23318;BME280;11831;55.918;37.746;2023-02-19T03:47:43;97624.13;;;-4.30;0.00
23318;BME280;11831;55.918;37.746;2023-02-19T03:53:28;97606.88;;;-4.02;0.00
23318;BME280;11831;55.918;37.746;2023-02-19T04:01:07;97604.28;;;-3.87;0.00
23318;BME280;11831;55.918;37.746;2023-02-19T04:03:51;97607.69;;;-4.01;0.00
23318;BME280;11831;55.918;37.746;2023-02-19T04:06:26;97601.91;;;-3.67;0.00
23318;BME280;11831;55.918;37.746;2023-02-19T04:08:56;97597.59;;;-3.75;0.00
23318;BME280;11831;55.918;37.746;2023-02-19T04:11:24;97597.44;;;-3.88;0.00
23318;BME280;11831;55.918;37.746;2023-02-19T04:16:37;97605.84;;;-4.45;0.00
23318;BME280;11831;55.918;37.746;2023-02-19T04:19:12;97612.69;;;-4.29;0.00
23318;BME280;11831;55.918;37.746;2023-02-19T04:21:41;97602.94;;;-3.98;0.00
23318;BME280;11831;55.918;37.746;2023-02-19T04:24:15;97615.56;;;-4.77;0.00
23318;BME280;11831;55.918;37.746;2023-02-19T04:26:44;97618.22;;;-3.65;0.00
23318;BME280;11831;55.918;37.746;2023-02-19T04:29:10;97602.66;;;-3.88;0.00
23318;BME280;11831;55.918;37.746;2023-02-19T04:31:37;97611.56;;;-3.83;0.00
23318;BME280;11831;55.918;37.746;2023-02-19T04:34:04;97615.87;;;-3.90;0.00
23318;BME280;11831;55.918;37.746;2023-02-19T04:36:31;97604.94;;;-3.34;0.00
23318;BME280;11831;55.918;37.746;2023-02-19T04:38:58;97604.88;;;-3.70;0.00
23318;BME280;11831;55.918;37.746;2023-02-19T04:41:24;97603.09;;;-3.85;0.00
23318;BME280;11831;55.918;37.746;2023-02-19T04:43:50;97601.53;;;-3.50;0.00
23318;BME280;11831;55.918;37.746;2023-02-19T04:46:17;97595.50;;;-3.50;0.00
23318;BME280;11831;55.918;37.746;2023-02-19T04:48:43;97594.72;;;-3.80;0.00
23318;BME280;11831;55.918;37.746;2023-02-19T04:51:10;97604.19;;;-3.94;0.00
23318;BME280;11831;55.918;37.746;2023-02-19T04:53:36;97590.69;;;-3.47;0.00
23318;BME280;11831;55.918;37.746;2023-02-19T04:56:13;97598.69;;;-3.99;0.00
23318;BME280;11831;55.918;37.746;2023-02-19T04:58:42;97585.00;;;-3.86;0.00
23318;BME280;11831;55.918;37.746;2023-02-19T05:01:09;97582.56;;;-4.02;0.00
23318;BME280;11831;55.918;37.746;2023-02-19T05:03:35;97580.59;;;-3.86;0.00
23318;BME280;11831;55.918;37.746;2023-02-19T05:06:07;97585.41;;;-3.53;0.00
23318;BME280;11831;55.918;37.746;2023-02-19T05:08:35;97583.53;;;-3.23;0.00
23318;BME280;11831;55.918;37.746;2023-02-19T05:11:03;97585.00;;;-3.86;0.00
23318;BME280;11831;55.918;37.746;2023-02-19T05:13:30;97580.38;;;-3.55;0.00
23318;BME280;11831;55.918;37.746;2023-02-19T05:16:00;97575.44;;;-3.28;0.00
23318;BME280;11831;55.918;37.746;2023-02-19T05:18:27;97579.22;;;-3.67;0.00
23318;BME280;11831;55.918;37.746;2023-02-19T05:20:53;97578.69;;;-3.41;0.00
23318;BME280;11831;55.918;37.746;2023-02-19T05:23:20;97574.38;;;-3.13;0.00
23318;BME280;11831;55.918;37.746;2023-02-19T05:25:47;97573.78;;;-2.09;0.00
23318;BME280;11831;55.918;37.746;2023-02-19T05:28:14;97573.47;;;-2.56;0.00
23318;BME280;11831;55.918;37.746;2023-02-19T05:30:48;97560.84;;;-2.17;0.00
23318;BME280;11831;55.918;37.746;2023-02-19T05:33:16;97562.22;;;-2.50;0.00
23318;BME280;11831;55.918;37.746;2023-02-19T05:35:45;97568.22;;;-2.28;0.00
23318;BME280;11831;55.918;37.746;2023-02-19T05:38:13;97568.09;;;-2.97;0.00
23318;BME280;11831;55.918;37.746;2023-02-19T05:40:40;97560.81;;;-3.01;0.00
23318;BME280;11831;55.918;37.746;2023-02-19T05:43:07;97559.31;;;-2.40;0.00
23318;BME280;11831;55.918;37.746;2023-02-19T05:45:34;97559.59;;;-2.77;0.00
23318;BME280;11831;55.918;37.746;2023-02-19T05:48:01;97567.97;;;-3.10;0.00
23318;BME280;11831;55.918;37.746;2023-02-19T05:50:28;97561.97;;;-2.61;0.00
23318;BME280;11831;55.918;37.746;2023-02-19T05:52:54;97568.88;;;-2.19;0.00
23318;BME280;11831;55.918;37.746;2023-02-19T05:55:21;97555.16;;;-2.56;0.00
23318;BME280;11831;55.918;37.746;2023-02-19T05:57:48;97561.09;;;-2.68;0.00
23318;BME280;11831;55.918;37.746;2023-02-19T06:00:16;97563.94;;;-2.63;0.00
23318;BME280;11831;55.918;37.746;2023-02-19T06:02:43;97556.19;;;-2.50;0.00
23318;BME280;11831;55.918;37.746;2023-02-19T06:05:10;97549.56;;;-2.46;0.00
23318;BME280;11831;55.918;37.746;2023-02-19T06:07:37;97547.69;;;-2.59;0.00
23318;BME280;11831;55.918;37.746;2023-02-19T06:10:05;97540.63;;;-2.30;0.00
23318;BME280;11831;55.918;37.746;2023-02-19T06:12:32;97546.16;;;-2.46;0.00
23318;BME280;11831;55.918;37.746;2023-02-19T06:14:58;97547.72;;;-2.52;0.00
23318;BME280;11831;55.918;37.746;2023-02-19T06:17:25;97550.88;;;-2.35;0.00
23318;BME280;11831;55.918;37.746;2023-02-19T06:19:51;97541.41;;;-2.64;0.00
23318;BME280;11831;55.918;37.746;2023-02-19T06:22:17;97544.06;;;-2.58;0.00
23318;BME280;11831;55.918;37.746;2023-02-19T06:24:44;97553.06;;;-2.39;0.00
23318;BME280;11831;55.918;37.746;2023-02-19T06:27:12;97541.81;;;-2.89;0.00
23318;BME280;11831;55.918;37.746;2023-02-19T06:29:38;97542.75;;;-2.12;0.00
23318;BME280;11831;55.918;37.746;2023-02-19T06:32:05;97528.75;;;-2.33;0.00
23318;BME280;11831;55.918;37.746;2023-02-19T06:34:32;97538.00;;;-1.41;0.00
23318;BME280;11831;55.918;37.746;2023-02-19T06:36:59;97545.50;;;-2.21;0.00
23318;BME280;11831;55.918;37.746;2023-02-19T06:39:26;97537.88;;;-2.15;0.00
23318;BME280;11831;55.918;37.746;2023-02-19T06:41:56;97545.81;;;-2.37;0.00
23318;BME280;11831;55.918;37.746;2023-02-19T06:44:23;97532.97;;;-1.91;0.00
23318;BME280;11831;55.918;37.746;2023-02-19T06:46:50;97530.13;;;-2.37;0.00
23318;BME280;11831;55.918;37.746;2023-02-19T06:49:17;97534.06;;;-1.72;0.00
23318;BME280;11831;55.918;37.746;2023-02-19T06:51:43;97536.03;;;-1.13;0.00
23318;BME280;11831;55.918;37.746;2023-02-19T06:54:10;97533.44;;;-0.80;0.00
23318;BME280;11831;55.918;37.746;2023-02-19T06:56:38;97525.63;;;0.56;0.00
23318;BME280;11831;55.918;37.746;2023-02-19T06:59:07;97525.97;;;-0.56;0.00
23318;BME280;11831;55.918;37.746;2023-02-19T07:01:36;97524.09;;;-0.16;0.00
23318;BME280;11831;55.918;37.746;2023-02-19T07:04:03;97517.25;;;0.34;0.00
23318;BME280;11831;55.918;37.746;2023-02-19T07:06:30;97518.88;;;-0.29;0.00
23318;BME280;11831;55.918;37.746;2023-02-19T07:08:57;97521.31;;;-0.68;0.00
23318;BME280;11831;55.918;37.746;2023-02-19T07:11:24;97518.78;;;-0.03;0.00
23318;BME280;11831;55.918;37.746;2023-02-19T07:13:55;97513.50;;;0.86;0.00
23318;BME280;11831;55.918;37.746;2023-02-19T07:16:23;97509.09;;;-0.03;0.00
23318;BME280;11831;55.918;37.746;2023-02-19T07:18:49;97509.81;;;-0.67;0.00
23318;BME280;11831;55.918;37.746;2023-02-19T07:21:16;97524.94;;;-0.29;0.00
23318;BME280;11831;55.918;37.746;2023-02-19T07:23:44;97498.94;;;0.14;0.00
23318;BME280;11831;55.918;37.746;2023-02-19T07:26:11;97500.78;;;0.83;0.00
23318;BME280;11831;55.918;37.746;2023-02-19T07:28:46;97503.75;;;-0.67;0.00
23318;BME280;11831;55.918;37.746;2023-02-19T07:31:14;97502.31;;;-0.30;0.00
23318;BME280;11831;55.918;37.746;2023-02-19T07:33:44;97494.66;;;0.20;0.00
23318;BME280;11831;55.918;37.746;2023-02-19T07:36:12;97495.34;;;0.02;0.00
23318;BME280;11831;55.918;37.746;2023-02-19T07:38:39;97495.25;;;0.22;0.00
23318;BME280;11831;55.918;37.746;2023-02-19T07:41:05;97486.78;;;0.58;0.00
23318;BME280;11831;55.918;37.746;2023-02-19T07:43:34;97485.06;;;-0.13;0.00
23318;BME280;11831;55.918;37.746;2023-02-19T07:46:05;97487.94;;;0.30;0.00
23318;BME280;11831;55.918;37.746;2023-02-19T07:48:33;97482.62;;;0.44;0.00
23318;BME280;11831;55.918;37.746;2023-02-19T07:51:01;97494.28;;;0.16;0.00
23318;BME280;11831;55.918;37.746;2023-02-19T07:53:28;97481.81;;;1.06;0.00
23318;BME280;11831;55.918;37.746;2023-02-19T07:56:00;97475.75;;;0.43;0.00
23318;BME280;11831;55.918;37.746;2023-02-19T07:58:27;97487.81;;;0.12;0.00
23318;BME280;11831;55.918;37.746;2023-02-19T08:00:54;97488.88;;;-0.02;0.00
23318;BME280;11831;55.918;37.746;2023-02-19T08:03:21;97476.53;;;1.31;0.00
23318;BME280;11831;55.918;37.746;2023-02-19T08:05:47;97469.06;;;1.28;0.00
23318;BME280;11831;55.918;37.746;2023-02-19T08:08:16;97461.91;;;0.85;0.00
23318;BME280;11831;55.918;37.746;2023-02-19T08:10:43;97472.88;;;1.32;0.00
23318;BME280;11831;55.918;37.746;2023-02-19T08:13:28;97467.97;;;0.54;0.00
23318;BME280;11831;55.918;37.746;2023-02-19T08:16:09;97458.25;;;-0.35;0.00
23318;BME280;11831;55.918;37.746;2023-02-19T08:18:36;97463.78;;;-0.56;0.00
23318;BME280;11831;55.918;37.746;2023-02-19T08:21:03;97456.47;;;0.17;0.00
23318;BME280;11831;55.918;37.746;2023-02-19T08:23:29;97468.31;;;-0.12;0.00
23318;BME280;11831;55.918;37.746;2023-02-19T08:25:57;97460.09;;;-0.35;0.00
23318;BME280;11831;55.918;37.746;2023-02-19T08:28:24;97465.00;;;-0.52;0.00
23318;BME280;11831;55.918;37.746;2023-02-19T08:30:51;97456.34;;;-0.01;0.00
23318;BME280;11831;55.918;37.746;2023-02-19T08:33:20;97447.69;;;0.68;0.00
23318;BME280;11831;55.918;37.746;2023-02-19T08:35:47;97460.47;;;-0.32;0.00
23318;BME280;11831;55.918;37.746;2023-02-19T08:38:13;97448.50;;;0.69;0.00
23318;BME280;11831;55.918;37.746;2023-02-19T08:40:42;97455.00;;;-0.17;0.00
23318;BME280;11831;55.918;37.746;2023-02-19T08:43:14;97454.19;;;0.90;0.00
23318;BME280;11831;55.918;37.746;2023-02-19T08:45:42;97467.19;;;-0.49;0.00
23318;BME280;11831;55.918;37.746;2023-02-19T08:48:10;97464.66;;;-0.11;0.00
23318;BME280;11831;55.918;37.746;2023-02-19T08:50:37;97453.50;;;0.07;0.00
23318;BME280;11831;55.918;37.746;2023-02-19T08:53:05;97455.03;;;1.34;0.00
23318;BME280;11831;55.918;37.746;2023-02-19T08:55:32;97449.84;;;1.03;0.00
23318;BME280;11831;55.918;37.746;2023-02-19T08:57:59;97444.56;;;0.15;0.00
23318;BME280;11831;55.918;37.746;2023-02-19T09:00:26;97445.38;;;0.78;0.00
23318;BME280;11831;55.918;37.746;2023-02-19T09:02:53;97452.59;;;-0.25;0.00
23318;BME280;11831;55.918;37.746;2023-02-19T09:05:19;97442.16;;;0.76;0.00
23318;BME280;11831;55.918;37.746;2023-02-19T09:07:45;97444.09;;;0.24;0.00
23318;BME280;11831;55.918;37.746;2023-02-19T09:10:12;97431.78;;;0.81;0.00
23318;BME280;11831;55.918;37.746;2023-02-19T09:12:39;97434.31;;;0.70;0.00
23318;BME280;11831;55.918;37.746;2023-02-19T09:15:07;97427.13;;;0.83;0.00
23318;BME280;11831;55.918;37.746;2023-02-19T09:17:33;97429.28;;;0.37;0.00
23318;BME280;11831;55.918;37.746;2023-02-19T09:20:00;97429.59;;;1.46;0.00
23318;BME280;11831;55.918;37.746;2023-02-19T09:22:26;97428.06;;;-0.06;0.00
23318;BME280;11831;55.918;37.746;2023-02-19T09:24:53;97425.53;;;-0.32;0.00
23318;BME280;11831;55.918;37.746;2023-02-19T09:27:19;97422.56;;;0.09;0.00
23318;BME280;11831;55.918;37.746;2023-02-19T09:29:46;97410.88;;;0.68;0.00
23318;BME280;11831;55.918;37.746;2023-02-19T09:32:13;97411.31;;;1.88;0.00
23318;BME280;11831;55.918;37.746;2023-02-19T09:34:39;97413.00;;;0.78;0.00
23318;BME280;11831;55.918;37.746;2023-02-19T09:37:06;97414.16;;;1.86;0.00
23318;BME280;11831;55.918;37.746;2023-02-19T09:39:34;97404.53;;;1.19;0.00
23318;BME280;11831;55.918;37.746;2023-02-19T09:42:07;97413.00;;;1.03;0.00
23318;BME280;11831;55.918;37.746;2023-02-19T09:44:38;97410.53;;;0.83;0.00
23318;BME280;11831;55.918;37.746;2023-02-19T09:47:12;97403.16;;;0.42;0.00
23318;BME280;11831;55.918;37.746;2023-02-19T09:49:42;97408.47;;;0.60;0.00
23318;BME280;11831;55.918;37.746;2023-02-19T09:54:51;97393.13;;;1.98;0.00
23318;BME280;11831;55.918;37.746;2023-02-19T09:57:23;97393.56;;;0.54;0.00
23318;BME280;11831;55.918;37.746;2023-02-19T09:59:55;97386.87;;;1.63;0.00
23318;BME280;11831;55.918;37.746;2023-02-19T10:02:25;97396.69;;;1.37;0.00
23318;BME280;11831;55.918;37.746;2023-02-19T10:04:53;97386.91;;;0.76;0.00
23318;BME280;11831;55.918;37.746;2023-02-19T10:07:23;97393.50;;;0.60;0.00
23318;BME280;11831;55.918;37.746;2023-02-19T10:10:01;97384.06;;;0.53;0.00
23318;BME280;11831;55.918;37.746;2023-02-19T10:12:33;97370.31;;;2.22;0.00
23318;BME280;11831;55.918;37.746;2023-02-19T10:15:31;97385.38;;;0.93;0.00
23318;BME280;11831;55.918;37.746;2023-02-19T10:18:01;97376.56;;;1.24;0.00
23318;BME280;11831;55.918;37.746;2023-02-19T10:20:28;97383.50;;;0.44;0.00
23318;BME280;11831;55.918;37.746;2023-02-19T10:23:01;97378.78;;;1.03;0.00
23318;BME280;11831;55.918;37.746;2023-02-19T10:25:28;97386.00;;;0.01;0.00
23318;BME280;11831;55.918;37.746;2023-02-19T10:27:58;97393.78;;;-0.95;0.00
23318;BME280;11831;55.918;37.746;2023-02-19T10:30:29;97382.72;;;0.12;0.00
23318;BME280;11831;55.918;37.746;2023-02-19T10:35:25;97376.69;;;1.48;0.00
23318;BME280;11831;55.918;37.746;2023-02-19T10:37:52;97362.72;;;1.11;0.00
23318;BME280;11831;55.918;37.746;2023-02-19T10:40:21;97373.97;;;1.00;0.00
23318;BME280;11831;55.918;37.746;2023-02-19T10:42:51;97377.47;;;0.69;0.00
23318;BME280;11831;55.918;37.746;2023-02-19T10:45:33;97375.91;;;0.61;0.00
23318;BME280;11831;55.918;37.746;2023-02-19T10:48:02;97384.56;;;1.54;0.00
23318;BME280;11831;55.918;37.746;2023-02-19T10:50:34;97376.19;;;1.39;0.00
